Time;durP1;ratioP1;P1;durP2;ratioP2;P2;SDS_P1;SDS_P2;PMS_P1;PMS_P2;Temp;Humidity;BMP_temperature;BMP_pressure;BME280_temperature;BME280_humidity;BME280_pressure;Samples;Min_cycle;Max_cycle;Signal;HPM_P1;HPM_P2
2021/12/17 00:02:53;;;;;;;2.43;1.07;;;;;;;2.80;58.64;102625.81;6343425;28;20184;-79
2021/12/17 00:05:51;;;;;;;1.07;1.00;;;;;;;2.98;57.98;102623.16;6342404;28;20200;-79
2021/12/17 00:08:58;;;;;;;1.00;1.00;;;;;;;2.74;58.94;102617.41;6342517;28;20215;-77
2021/12/17 00:12:04;;;;;;;0.90;0.90;;;;;;;3.08;58.12;102626.69;6341630;28;20191;-78
2021/12/17 00:15:12;;;;;;;0.90;0.90;;;;;;;3.05;58.07;102613.41;6341767;28;20189;-79
2021/12/17 00:18:22;;;;;;;0.93;0.93;;;;;;;2.92;58.11;102623.75;6342004;28;20503;-79
2021/12/17 00:48:38;;;;;;;0.80;0.80;;;;;;;2.94;58.64;102643.44;6341811;28;20216;-78
2021/12/17 00:55:11;;;;;;;1.10;1.10;;;;;;;3.00;58.38;102653.72;6288774;28;20247;-78
2021/12/17 00:58:16;;;;;;;2.00;0.90;;;;;;;2.81;58.80;102659.22;6298800;28;20254;-78
2021/12/17 01:01:22;;;;;;;0.97;0.97;;;;;;;3.01;58.31;102663.56;6298569;28;20206;-78
2021/12/17 01:04:27;;;;;;;1.10;1.03;;;;;;;2.96;58.49;102665.03;6316721;28;20227;-78
2021/12/17 01:07:34;;;;;;;1.30;1.00;;;;;;;2.97;58.70;102659.44;6297405;28;20209;-78
2021/12/17 01:10:46;;;;;;;1.40;0.90;;;;;;;2.69;59.18;102660.41;6298488;28;20201;-78
2021/12/17 01:14:20;;;;;;;0.90;0.90;;;;;;;2.60;59.85;102677.56;6298775;28;20225;-78
2021/12/17 01:18:03;;;;;;;1.40;0.80;;;;;;;2.69;59.71;102665.84;6291683;28;20222;-78
2021/12/17 01:25:09;;;;;;;1.67;1.10;;;;;;;2.75;59.52;102671.50;6296670;28;20204;-78
2021/12/17 01:35:29;;;;;;;1.03;1.00;;;;;;;2.90;58.80;102685.47;6298263;28;20229;-78
2021/12/17 01:42:26;;;;;;;1.03;0.90;;;;;;;2.58;60.17;102701.25;6263312;28;20200;-78
2021/12/17 01:45:37;;;;;;;0.90;0.90;;;;;;;2.73;59.69;102705.22;6296861;28;20274;-79
2021/12/17 01:49:02;;;;;;;1.07;0.97;;;;;;;2.54;60.64;102702.56;6297226;28;20265;-79
2021/12/17 01:56:01;;;;;;;1.00;1.00;;;;;;;2.63;59.74;102715.22;6296832;28;20226;-79
2021/12/17 01:59:30;;;;;;;1.00;1.00;;;;;;;2.63;60.03;102709.81;6296887;28;20497;-79
2021/12/17 02:02:44;;;;;;;3.10;0.93;;;;;;;2.57;59.87;102737.53;6296856;28;20200;-79
2021/12/17 02:05:50;;;;;;;0.90;0.90;;;;;;;2.72;59.85;102742.38;6297142;28;20210;-79
2021/12/17 02:08:56;;;;;;;1.30;1.30;;;;;;;2.43;60.48;102740.69;6315326;28;20184;-79
2021/12/17 02:12:27;;;;;;;1.00;1.00;;;;;;;2.53;60.64;102741.53;6297508;28;20200;-78
2021/12/17 02:29:40;;;;;;;0.90;0.90;;;;;;;2.65;60.43;102767.50;6296579;28;20199;-79
2021/12/17 02:32:47;;;;;;;0.87;0.87;;;;;;;2.35;61.18;102773.06;6295352;28;20203;-79
2021/12/17 02:35:51;;;;;;;0.90;0.90;;;;;;;2.42;61.04;102779.66;6312930;28;20568;-79
2021/12/17 02:39:14;;;;;;;1.73;0.90;;;;;;;2.63;59.98;102774.91;6314398;28;20253;-78
2021/12/17 02:46:17;;;;;;;0.87;0.87;;;;;;;2.30;61.22;102768.94;6359762;27;20823;-77
2021/12/17 02:49:22;;;;;;;0.97;0.97;;;;;;;2.45;60.44;102761.22;6392658;27;20276;-78
2021/12/17 02:52:30;;;;;;;1.40;1.00;;;;;;;2.76;59.72;102756.47;6358266;28;20201;-78
2021/12/17 02:55:37;;;;;;;1.17;1.03;;;;;;;2.55;60.42;102761.25;6359908;28;20335;-78
2021/12/17 02:58:41;;;;;;;0.90;0.90;;;;;;;2.43;60.61;102767.78;6359977;28;20196;-78
2021/12/17 03:01:49;;;;;;;0.97;0.97;;;;;;;2.75;60.01;102762.91;6393211;27;20205;-78
2021/12/17 03:04:53;;;;;;;1.00;1.00;;;;;;;2.39;59.96;102767.25;6360724;28;20288;-78
2021/12/17 03:07:58;;;;;;;1.00;1.00;;;;;;;2.54;60.00;102781.22;6359571;28;20186;-78
2021/12/17 03:11:03;;;;;;;0.93;0.90;;;;;;;2.66;59.75;102780.06;6359448;28;20199;-78
2021/12/17 03:14:08;;;;;;;0.70;0.70;;;;;;;2.47;60.11;102790.94;6392806;27;20212;-78
2021/12/17 03:17:24;;;;;;;2.20;0.93;;;;;;;2.90;58.97;102783.16;6360960;28;20184;-78
2021/12/17 03:23:52;;;;;;;1.00;1.00;;;;;;;2.52;60.27;102772.38;6358631;28;20210;-78
2021/12/17 03:27:04;;;;;;;2.27;1.20;;;;;;;2.47;60.14;102775.50;6391977;27;20514;-78
2021/12/17 03:30:13;;;;;;;5.43;0.97;;;;;;;2.76;59.30;102780.88;6357635;28;20566;-77
2021/12/17 03:33:20;;;;;;;2.10;1.00;;;;;;;2.48;59.86;102789.91;6391568;27;20254;-78
2021/12/17 03:36:27;;;;;;;0.93;0.93;;;;;;;2.46;60.22;102791.91;6359676;28;20194;-78
2021/12/17 03:39:31;;;;;;;5.23;1.20;;;;;;;2.51;59.87;102792.34;6392058;27;20226;-79
2021/12/17 03:42:36;;;;;;;2.53;0.90;;;;;;;2.54;59.75;102786.63;6357519;28;20199;-78
2021/12/17 03:45:42;;;;;;;2.23;1.07;;;;;;;2.50;59.97;102791.47;6358284;28;20265;-78
2021/12/17 03:48:52;;;;;;;2.13;0.90;;;;;;;2.62;59.57;102790.34;6357807;28;20308;-78
2021/12/17 03:52:05;;;;;;;0.87;0.87;;;;;;;2.49;60.10;102783.50;6392612;27;20206;-78
2021/12/17 03:55:16;;;;;;;2.97;1.13;;;;;;;2.61;59.69;102785.91;6353577;28;20208;-78
2021/12/17 03:58:24;;;;;;;3.47;1.60;;;;;;;2.65;59.83;102805.47;6375328;27;20202;-78
2021/12/17 04:01:29;;;;;;;1.60;0.90;;;;;;;2.61;59.51;102813.03;6341271;28;20234;-78
2021/12/17 04:04:34;;;;;;;0.80;0.80;;;;;;;2.39;60.67;102826.03;6374935;27;20355;-78
2021/12/17 04:07:59;;;;;;;1.10;1.10;;;;;;;2.44;60.57;102815.63;6331201;28;20268;-78
2021/12/17 04:11:31;;;;;;;1.07;0.90;;;;;;;2.27;60.54;102828.00;6340638;28;20498;-78
2021/12/17 04:14:44;;;;;;;1.20;1.20;;;;;;;2.50;60.57;102844.84;6340544;28;20204;-78
2021/12/17 04:17:54;;;;;;;3.50;1.00;;;;;;;2.26;61.13;102837.16;6374266;27;20485;-78
2021/12/17 04:21:03;;;;;;;0.97;0.97;;;;;;;2.66;59.97;102861.44;6340940;28;20209;-78
2021/12/17 04:24:08;;;;;;;3.37;1.07;;;;;;;2.48;60.24;102847.72;6373868;27;20199;-79
2021/12/17 04:27:15;;;;;;;0.97;0.90;;;;;;;2.41;60.67;102840.28;6340116;28;20351;-79
2021/12/17 04:30:20;;;;;;;1.10;1.10;;;;;;;2.69;59.98;102844.88;6373997;27;20200;-78
2021/12/17 04:33:24;;;;;;;2.53;1.07;;;;;;;2.47;60.45;102846.00;6339490;28;20198;-78
2021/12/17 04:36:33;;;;;;;4.27;1.27;;;;;;;2.43;60.67;102835.59;6374557;27;20317;-79
2021/12/17 04:39:43;;;;;;;3.47;0.93;;;;;;;2.49;60.84;102818.75;6339271;28;20494;-78
2021/12/17 04:42:57;;;;;;;2.97;0.93;;;;;;;2.66;60.33;102820.75;6341697;28;20182;-78
2021/12/17 04:46:16;;;;;;;4.73;1.30;;;;;;;2.38;61.13;102813.47;6338942;28;20233;-78
2021/12/17 04:59:26;;;;;;;2.00;0.90;;;;;;;2.26;62.05;102815.47;6338986;28;20240;-78
2021/12/17 05:02:39;;;;;;;1.80;1.03;;;;;;;2.40;61.59;102816.88;6372596;27;20202;-78
2021/12/17 05:05:44;;;;;;;2.27;1.20;;;;;;;2.39;61.51;102826.03;6339637;28;20260;-78
2021/12/17 05:09:00;;;;;;;1.17;1.17;;;;;;;2.25;61.97;102835.44;6371608;27;20297;-78
2021/12/17 05:18:58;;;;;;;4.73;1.03;;;;;;;2.17;61.72;102849.69;6339443;28;20207;-78
2021/12/17 05:22:08;;;;;;;1.60;1.40;;;;;;;2.49;61.15;102859.44;6339235;28;20202;-78
2021/12/17 05:25:14;;;;;;;1.00;1.00;;;;;;;2.17;61.31;102865.94;6338834;28;20226;-78
2021/12/17 05:28:35;;;;;;;1.80;1.07;;;;;;;2.02;62.47;102872.75;6368060;27;20467;-78
2021/12/17 05:31:42;;;;;;;1.80;1.20;;;;;;;2.32;61.27;102873.69;6338565;28;20205;-78
2021/12/17 05:34:47;;;;;;;1.00;1.00;;;;;;;2.20;61.04;102879.22;6372339;27;20339;-78
2021/12/17 05:37:51;;;;;;;1.17;1.07;;;;;;;2.11;62.32;102882.75;6338536;28;20384;-78
2021/12/17 05:40:57;;;;;;;3.30;1.00;;;;;;;2.15;61.68;102894.19;6372967;27;20206;-78
2021/12/17 05:44:05;;;;;;;2.27;0.90;;;;;;;2.32;60.95;102894.38;6337852;28;20394;-78
2021/12/17 05:47:10;;;;;;;1.30;1.20;;;;;;;2.18;61.46;102889.34;6371541;27;20402;-78
2021/12/17 05:50:15;;;;;;;3.40;1.00;;;;;;;2.37;61.20;102866.00;6337082;28;20484;-77
2021/12/17 05:53:20;;;;;;;3.70;1.40;;;;;;;2.10;62.09;102881.06;6337513;28;20502;-77
2021/12/17 05:56:28;;;;;;;2.53;1.17;;;;;;;2.50;60.91;102866.56;6337244;28;20206;-79
2021/12/17 05:59:34;;;;;;;1.10;1.03;;;;;;;2.07;61.84;102870.50;6371541;27;20252;-78
2021/12/17 06:02:40;;;;;;;3.50;1.00;;;;;;;2.04;62.32;102887.03;6337476;28;20209;-79
2021/12/17 06:05:48;;;;;;;1.10;1.10;;;;;;;2.20;61.57;102886.50;6370783;27;20579;-78
2021/12/17 06:08:52;;;;;;;2.83;1.13;;;;;;;1.91;62.88;102897.25;6337223;28;20308;-78
2021/12/17 06:11:59;;;;;;;3.73;1.33;;;;;;;2.01;62.71;102903.53;6339425;28;20224;-78
2021/12/17 06:15:04;;;;;;;1.33;1.10;;;;;;;2.03;62.69;102901.59;6337567;28;20199;-78
2021/12/17 06:18:14;;;;;;;1.07;1.07;;;;;;;2.26;61.86;102913.94;6370665;27;20262;-77
2021/12/17 06:21:19;;;;;;;1.90;1.20;;;;;;;2.13;62.16;102897.06;6337212;28;20563;-78
2021/12/17 06:24:24;;;;;;;3.40;1.37;;;;;;;2.20;62.22;102890.06;6337763;28;20186;-79
2021/12/17 06:27:29;;;;;;;3.70;1.17;;;;;;;2.40;61.56;102900.94;6338047;28;20222;-78
2021/12/17 06:30:34;;;;;;;1.57;0.90;;;;;;;2.35;61.79;102901.38;6371052;27;20202;-79
2021/12/17 06:33:39;;;;;;;1.10;1.10;;;;;;;2.46;61.12;102905.81;6339006;28;20198;-79
2021/12/17 06:36:44;;;;;;;1.00;1.00;;;;;;;2.19;61.57;102901.91;6373405;27;20217;-79
2021/12/17 06:39:49;;;;;;;1.00;1.00;;;;;;;2.40;61.81;102909.06;6340385;28;20186;-79
2021/12/17 06:42:56;;;;;;;4.07;1.43;;;;;;;2.17;61.89;102914.72;6372968;28;20199;-79
2021/12/17 06:46:14;;;;;;;2.53;1.10;;;;;;;2.04;62.30;102930.38;6339396;28;20299;-78
2021/12/17 06:49:26;;;;;;;3.87;1.30;;;;;;;2.08;62.65;102921.00;6376209;28;20205;-78
2021/12/17 07:00:23;;;;;;;7.60;1.43;;;;;;;2.45;61.40;102939.34;6309174;28;20206;-78
2021/12/17 07:10:42;;;;;;;1.83;1.00;;;;;;;2.54;61.18;102943.94;6337045;28;20202;-77
2021/12/17 07:17:22;;;;;;;2.73;1.20;;;;;;;2.36;61.49;102951.91;6336537;28;20271;-77
2021/12/17 07:34:45;;;;;;;2.07;1.20;;;;;;;2.61;60.92;102992.06;6316057;28;20230;-79
2021/12/17 07:41:16;;;;;;;1.00;1.00;;;;;;;2.27;61.65;102988.81;6341681;28;20201;-81
2021/12/17 07:44:21;;;;;;;2.93;1.30;;;;;;;2.32;61.45;102994.69;6375153;27;20248;-82
2021/12/17 07:47:46;;;;;;;5.07;1.30;;;;;;;2.50;61.58;102985.88;6343008;28;20220;-81
2021/12/17 07:50:59;;;;;;;1.27;1.20;;;;;;;2.61;60.95;102974.94;6343799;28;20193;-79
2021/12/17 07:54:26;;;;;;;1.50;1.20;;;;;;;2.38;61.98;102976.16;6338811;28;20205;-79
2021/12/17 07:57:31;;;;;;;1.17;1.17;;;;;;;2.68;60.62;102986.94;6374519;27;20494;-78
2021/12/17 08:00:36;;;;;;;2.27;1.43;;;;;;;2.50;61.31;102985.88;6339703;28;20250;-79
2021/12/17 08:03:42;;;;;;;6.00;1.67;;;;;;;2.55;61.49;102986.34;6374442;27;20209;-78
2021/12/17 08:07:05;;;;;;;1.47;1.37;;;;;;;2.78;60.45;102985.94;6339662;28;20307;-78
2021/12/17 08:10:12;;;;;;;1.47;1.37;;;;;;;2.74;60.65;102989.09;6375275;27;20455;-78
2021/12/17 08:13:21;;;;;;;4.17;1.10;;;;;;;2.74;60.86;102983.66;6341754;28;20212;-79
2021/12/17 08:16:35;;;;;;;9.03;1.63;;;;;;;2.66;60.79;102980.78;6342393;28;20190;-78
2021/12/17 08:23:44;;;;;;;1.47;1.37;;;;;;;2.73;60.33;102985.50;6340269;28;20569;-78
2021/12/17 08:26:52;;;;;;;3.60;1.30;;;;;;;2.92;59.93;102981.97;6340471;28;20222;-78
2021/12/17 08:30:20;;;;;;;3.20;1.37;;;;;;;2.92;60.18;102976.56;6374527;27;20206;-78
2021/12/17 08:33:29;;;;;;;2.77;1.30;;;;;;;2.69;61.16;102985.94;6373793;27;20276;-78
2021/12/17 08:36:33;;;;;;;5.83;1.80;;;;;;;3.09;59.54;102989.41;6341563;28;20404;-78
2021/12/17 08:39:41;;;;;;;5.17;1.40;;;;;;;2.69;60.79;102985.94;6338935;28;20396;-78
2021/12/17 08:43:12;;;;;;;1.57;1.50;;;;;;;2.80;60.36;102983.13;6338524;28;20203;-78
2021/12/17 08:50:05;;;;;;;5.50;1.20;;;;;;;3.09;59.62;102983.97;6338260;28;20244;-78
2021/12/17 08:53:11;;;;;;;2.10;1.47;;;;;;;2.92;60.29;102992.84;6340736;28;20240;-78
2021/12/17 08:56:22;;;;;;;4.23;1.50;;;;;;;3.08;59.89;103008.56;6373002;27;20214;-78
2021/12/17 08:59:29;;;;;;;1.53;1.20;;;;;;;2.99;60.20;103004.84;6338453;28;20208;-78
2021/12/17 09:02:48;;;;;;;3.97;1.40;;;;;;;3.06;59.94;103011.41;6339884;28;20213;-78
2021/12/17 09:06:22;;;;;;;2.53;1.30;;;;;;;3.17;59.68;102997.69;6338929;28;20486;-78
2021/12/17 09:09:27;;;;;;;5.80;1.40;;;;;;;3.35;58.93;103005.97;6373607;27;20227;-78
2021/12/17 09:12:36;;;;;;;1.30;1.20;;;;;;;3.32;58.95;103001.69;6340061;28;20200;-78
2021/12/17 09:15:40;;;;;;;1.27;1.20;;;;;;;3.72;58.21;103014.25;6340136;28;20259;-79
2021/12/17 09:18:49;;;;;;;1.23;1.23;;;;;;;3.06;59.58;103022.25;6339931;28;20202;-78
2021/12/17 09:22:12;;;;;;;4.03;1.70;;;;;;;3.43;58.97;103020.56;6373201;27;20203;-79
2021/12/17 09:25:24;;;;;;;1.57;1.47;;;;;;;3.14;59.31;103030.56;6340648;28;20200;-79
2021/12/17 09:28:33;;;;;;;1.37;1.37;;;;;;;3.28;59.46;103038.31;6374115;27;20285;-79
2021/12/17 09:31:41;;;;;;;1.33;1.30;;;;;;;3.49;58.90;103025.44;6339883;28;20250;-78
2021/12/17 09:34:45;;;;;;;6.17;1.20;;;;;;;3.52;58.60;103008.81;6338538;28;20380;-78
2021/12/17 09:37:49;;;;;;;2.87;1.17;;;;;;;3.41;58.69;103014.44;6338823;28;20196;-78
2021/12/17 09:40:54;;;;;;;2.70;1.30;;;;;;;3.44;58.77;103010.56;6338528;28;20185;-78
2021/12/17 09:44:00;;;;;;;2.50;1.23;;;;;;;3.83;57.85;103016.81;6339330;28;20236;-79
2021/12/17 09:47:05;;;;;;;2.37;1.40;;;;;;;3.75;57.85;103003.09;6338815;28;20185;-79
2021/12/17 09:50:13;;;;;;;5.00;1.47;;;;;;;3.44;58.86;103007.84;6339462;28;20183;-79
2021/12/17 09:53:17;;;;;;;4.57;1.53;;;;;;;3.28;59.29;103016.56;6338162;28;20213;-79
2021/12/17 09:56:21;;;;;;;5.23;1.50;;;;;;;3.43;58.95;103015.13;6339695;28;20217;-78
2021/12/17 09:59:27;;;;;;;3.07;1.30;;;;;;;3.49;58.62;103020.00;6339721;28;20203;-79
2021/12/17 10:02:31;;;;;;;5.13;1.57;;;;;;;3.63;58.14;103004.25;6339169;28;20217;-79
2021/12/17 10:05:38;;;;;;;1.47;1.17;;;;;;;3.52;58.31;103008.81;6338437;28;20411;-79
2021/12/17 10:08:47;;;;;;;6.80;1.47;;;;;;;3.82;57.95;103015.09;6338838;28;20300;-79
2021/12/17 10:12:10;;;;;;;1.40;1.30;;;;;;;3.61;58.01;103017.97;6339986;28;20192;-79
2021/12/17 10:15:18;;;;;;;1.33;1.30;;;;;;;3.39;58.57;103032.75;6338964;28;20274;-79
2021/12/17 10:18:33;;;;;;;3.67;1.50;;;;;;;3.75;57.23;103043.84;6341052;28;20189;-79
2021/12/17 10:21:46;;;;;;;4.00;1.10;;;;;;;3.73;57.88;103048.59;6338247;28;20468;-79
2021/12/17 10:24:59;;;;;;;2.43;1.40;;;;;;;3.66;57.71;103037.41;6337671;28;20480;-79
2021/12/17 10:28:06;;;;;;;3.93;1.37;;;;;;;3.83;57.69;103049.41;6337791;28;20510;-79
2021/12/17 10:31:12;;;;;;;1.43;1.30;;;;;;;3.65;58.07;103052.03;6364783;28;20223;-79
2021/12/17 10:34:18;;;;;;;2.57;1.40;;;;;;;3.77;57.24;103055.44;6364186;28;20212;-79
2021/12/17 10:37:32;;;;;;;4.67;1.57;;;;;;;4.03;56.99;103061.97;6364740;28;20198;-79
2021/12/17 10:40:41;;;;;;;4.83;1.67;;;;;;;3.80;57.07;103076.88;6364685;28;20184;-79
2021/12/17 10:43:50;;;;;;;1.50;1.40;;;;;;;3.73;57.44;103075.75;6363549;28;20243;-80
2021/12/17 10:47:09;;;;;;;6.90;1.60;;;;;;;3.92;56.69;103092.03;6363427;28;20379;-79
2021/12/17 10:50:24;;;;;;;2.47;1.43;;;;;;;4.14;56.64;103094.41;6363214;28;20207;-79
2021/12/17 10:53:29;;;;;;;6.03;1.67;;;;;;;4.11;56.37;103092.00;6363452;28;20191;-78
2021/12/17 10:56:38;;;;;;;8.07;1.60;;;;;;;4.42;56.01;103090.81;6362246;28;20426;-78
2021/12/17 10:59:47;;;;;;;3.63;1.30;;;;;;;4.01;56.32;103096.59;6363994;28;20189;-79
2021/12/17 11:02:54;;;;;;;7.20;1.77;;;;;;;4.22;56.14;103078.22;6362994;28;20238;-79
2021/12/17 11:05:59;;;;;;;12.20;2.00;;;;;;;4.25;55.87;103072.47;6365104;28;20186;-79
2021/12/17 11:09:04;;;;;;;1.50;1.40;;;;;;;4.38;55.54;103073.06;6369282;28;20208;-79
2021/12/17 11:12:31;;;;;;;1.53;1.20;;;;;;;4.54;55.06;103084.16;6368547;28;20359;-79
2021/12/17 11:15:36;;;;;;;11.07;1.53;;;;;;;4.68;54.89;103075.50;6370018;28;20185;-79
2021/12/17 11:18:41;;;;;;;2.40;1.50;;;;;;;4.54;55.16;103076.00;6369747;28;20249;-79
2021/12/17 11:21:46;;;;;;;2.10;1.40;;;;;;;4.32;55.74;103067.38;6368823;28;20219;-79
2021/12/17 11:24:50;;;;;;;5.83;1.70;;;;;;;4.43;55.44;103070.75;6368256;28;20272;-79
2021/12/17 11:27:55;;;;;;;6.93;1.60;;;;;;;4.68;54.91;103072.78;6368108;28;20199;-79
2021/12/17 11:31:00;;;;;;;4.17;1.40;;;;;;;4.46;55.16;103081.34;6370773;28;20184;-80
2021/12/17 11:34:06;;;;;;;6.70;1.33;;;;;;;4.54;55.37;103081.44;6367416;28;20184;-79
2021/12/17 11:37:11;;;;;;;1.80;1.17;;;;;;;4.65;55.13;103074.97;6367615;28;20184;-79
2021/12/17 11:40:21;;;;;;;1.93;1.37;;;;;;;4.44;55.45;103064.31;6368319;28;20189;-79
2021/12/17 11:43:40;;;;;;;2.07;1.60;;;;;;;4.28;55.77;103053.19;6367891;28;20199;-78
2021/12/17 11:46:44;;;;;;;2.13;1.37;;;;;;;4.17;56.14;103054.19;6366989;28;20194;-78
2021/12/17 11:49:52;;;;;;;3.33;1.80;;;;;;;4.14;55.89;103053.63;6367388;28;20220;-78
2021/12/17 11:52:57;;;;;;;3.80;1.70;;;;;;;4.17;56.25;103053.31;6367248;28;20224;-78
2021/12/17 11:56:03;;;;;;;13.77;1.70;;;;;;;4.45;55.54;103059.72;6366891;28;20264;-78
2021/12/17 11:59:10;;;;;;;5.23;1.50;;;;;;;4.72;54.92;103076.91;6367242;28;20255;-78
2021/12/17 12:02:17;;;;;;;2.90;1.60;;;;;;;4.59;54.91;103070.97;6366032;28;20183;-79
2021/12/17 12:05:36;;;;;;;6.77;1.53;;;;;;;4.53;54.90;103074.28;6366870;28;20285;-78
2021/12/17 12:08:47;;;;;;;4.37;1.23;;;;;;;4.57;54.90;103078.44;6368442;28;20391;-79
2021/12/17 12:12:10;;;;;;;3.53;1.60;;;;;;;4.62;54.57;103070.66;6368012;28;20216;-79
2021/12/17 12:15:36;;;;;;;4.97;1.47;;;;;;;4.24;55.46;103065.34;6367371;28;20192;-79
2021/12/17 12:18:57;;;;;;;3.40;1.63;;;;;;;4.47;55.22;103066.72;6348916;28;20305;-79
2021/12/17 12:22:08;;;;;;;4.97;1.60;;;;;;;4.17;55.77;103070.50;6367525;28;20208;-79
2021/12/17 12:25:30;;;;;;;10.53;1.60;;;;;;;4.24;55.54;103070.78;6366895;28;20217;-79
2021/12/17 12:28:52;;;;;;;11.33;1.90;;;;;;;4.51;55.07;103072.72;6367286;28;20185;-79
2021/12/17 12:32:20;;;;;;;4.07;1.60;;;;;;;4.51;55.73;103056.38;6367795;28;20264;-79
2021/12/17 12:35:24;;;;;;;6.93;1.53;;;;;;;4.19;56.00;103070.38;6366464;28;20185;-79
2021/12/17 12:38:33;;;;;;;4.90;1.37;;;;;;;4.09;56.16;103066.78;6366943;28;20250;-79
2021/12/17 12:41:44;;;;;;;8.57;1.63;;;;;;;4.45;55.62;103063.28;6368076;28;20192;-79
2021/12/17 12:45:09;;;;;;;4.20;1.60;;;;;;;4.42;55.62;103079.06;6367091;28;20296;-81
2021/12/17 12:48:31;;;;;;;2.87;1.40;;;;;;;4.32;55.82;103073.63;6367614;28;20189;-80
2021/12/17 12:51:35;;;;;;;5.87;1.77;;;;;;;4.28;56.03;103072.22;6367634;28;20259;-79
2021/12/17 12:54:41;;;;;;;4.63;1.57;;;;;;;4.23;55.98;103079.94;6367130;28;20189;-78
2021/12/17 12:57:48;;;;;;;5.47;1.80;;;;;;;4.17;56.32;103058.75;6365316;28;20185;-77
2021/12/17 13:00:55;;;;;;;2.33;1.67;;;;;;;4.10;56.64;103060.38;6366389;28;20201;-81
2021/12/17 13:04:07;;;;;;;3.63;1.23;;;;;;;4.34;56.10;103060.75;6366530;28;20498;-78
2021/12/17 13:07:14;;;;;;;11.13;1.80;;;;;;;4.48;55.66;103051.25;6366684;28;20248;-83
2021/12/17 13:10:23;;;;;;;4.77;1.83;;;;;;;4.47;55.59;103055.84;6367926;28;20211;-81
2021/12/17 13:13:34;;;;;;;3.00;1.67;;;;;;;4.29;56.34;103063.06;6366368;28;20193;-80
2021/12/17 13:17:05;;;;;;;6.63;1.80;;;;;;;4.26;56.25;103063.34;6366453;28;20191;-80
2021/12/17 13:20:41;;;;;;;3.07;1.43;;;;;;;4.20;56.73;103074.78;6366007;28;20268;-80
2021/12/17 13:23:51;;;;;;;2.57;1.80;;;;;;;4.23;56.66;103063.63;6347413;28;20201;-79
2021/12/17 13:27:00;;;;;;;2.43;1.40;;;;;;;3.91;57.41;103074.03;6364371;28;20209;-79
2021/12/17 13:30:09;;;;;;;2.30;1.20;;;;;;;3.93;57.44;103080.16;6364213;28;20214;-78
2021/12/17 13:33:14;;;;;;;3.30;1.50;;;;;;;3.84;57.74;103067.44;6365306;28;20205;-78
2021/12/17 13:36:19;;;;;;;2.67;1.40;;;;;;;3.74;58.36;103088.31;6366090;28;20248;-78
2021/12/17 13:39:24;;;;;;;2.10;1.27;;;;;;;3.66;58.77;103090.91;6366600;28;20193;-78
2021/12/17 13:42:32;;;;;;;5.43;1.40;;;;;;;3.61;58.76;103093.19;6365731;28;20426;-78
2021/12/17 13:45:36;;;;;;;3.00;1.40;;;;;;;3.60;58.60;103097.75;6365388;28;20507;-79
2021/12/17 13:48:42;;;;;;;2.00;1.70;;;;;;;3.40;59.34;103091.47;6366181;28;20192;-79
2021/12/17 13:51:47;;;;;;;1.33;1.30;;;;;;;3.63;59.22;103102.06;6365507;28;20215;-80
2021/12/17 13:54:53;;;;;;;1.70;1.70;;;;;;;3.55;59.08;103106.34;6364518;28;20219;-78
2021/12/17 13:58:01;;;;;;;5.13;1.30;;;;;;;3.20;60.23;103095.16;6365584;28;20183;-79
2021/12/17 14:01:06;;;;;;;7.07;1.40;;;;;;;3.58;59.17;103106.06;6365369;28;20255;-77
2021/12/17 14:04:15;;;;;;;4.23;1.40;;;;;;;3.65;58.98;103110.94;6364947;28;20185;-78
2021/12/17 14:07:27;;;;;;;3.27;1.40;;;;;;;3.42;59.63;103105.75;6365121;28;20190;-79
2021/12/17 14:10:33;;;;;;;2.77;1.60;;;;;;;3.57;59.12;103098.91;6364711;28;20213;-78
2021/12/17 14:13:43;;;;;;;1.50;1.40;;;;;;;3.39;59.51;103100.63;6363086;28;20370;-78
2021/12/17 14:16:56;;;;;;;10.60;1.80;;;;;;;3.51;59.43;103088.63;6363298;28;20211;-79
2021/12/17 14:20:11;;;;;;;3.90;1.60;;;;;;;3.32;59.84;103095.88;6365086;28;20194;-79
2021/12/17 14:23:18;;;;;;;2.20;1.70;;;;;;;3.48;59.45;103094.34;6364413;28;20314;-79
2021/12/17 14:26:29;;;;;;;7.27;1.27;;;;;;;3.28;60.20;103098.03;6364817;28;20186;-79
2021/12/17 14:29:38;;;;;;;3.60;1.50;;;;;;;3.13;60.96;103104.88;6364643;28;20252;-79
2021/12/17 14:32:43;;;;;;;2.17;1.50;;;;;;;3.27;60.93;103107.19;6365011;28;20229;-79
2021/12/17 14:35:51;;;;;;;3.50;1.07;;;;;;;3.04;61.54;103111.13;6363390;28;20253;-79
2021/12/17 14:39:04;;;;;;;1.30;1.30;;;;;;;3.31;60.86;103107.75;6364742;28;20184;-79
2021/12/17 14:42:12;;;;;;;2.77;1.40;;;;;;;3.38;60.60;103111.63;6363131;28;20426;-79
2021/12/17 14:45:21;;;;;;;2.73;1.70;;;;;;;3.62;59.66;103116.66;6363915;28;20235;-79
2021/12/17 14:48:36;;;;;;;3.83;1.23;;;;;;;3.29;60.94;103102.44;6363407;28;20494;-78
2021/12/17 15:02:10;;;;;;;4.13;1.27;;;;;;;3.21;61.42;103113.19;6362441;28;20373;-79
2021/12/17 15:05:16;;;;;;;2.00;1.43;;;;;;;3.35;60.92;103125.47;6363428;28;20265;-79
2021/12/17 15:08:20;;;;;;;3.53;1.37;;;;;;;2.96;61.90;103139.97;6363964;28;20215;-79
2021/12/17 15:11:28;;;;;;;1.43;1.40;;;;;;;2.87;62.64;103147.09;6364108;28;20293;-79
2021/12/17 15:14:32;;;;;;;1.87;1.60;;;;;;;3.13;61.88;103142.03;6363548;28;20418;-79
2021/12/17 15:17:39;;;;;;;3.03;1.50;;;;;;;2.96;62.30;103127.25;6364616;28;20189;-78
2021/12/17 15:20:57;;;;;;;1.70;1.63;;;;;;;2.91;62.42;103115.94;6364336;28;20188;-79
2021/12/17 15:24:01;;;;;;;1.63;1.53;;;;;;;2.89;62.45;103117.94;6364398;28;20221;-79
2021/12/17 15:27:07;;;;;;;1.20;1.20;;;;;;;2.90;62.46;103125.09;6365220;28;20252;-82
2021/12/17 15:30:16;;;;;;;1.87;1.33;;;;;;;2.94;62.49;103111.13;6363692;28;20472;-79
2021/12/17 15:33:22;;;;;;;3.37;1.40;;;;;;;2.73;62.87;103112.16;6363322;28;20468;-78
2021/12/17 15:36:27;;;;;;;1.27;1.20;;;;;;;2.87;62.70;103109.09;6364300;28;20190;-79
2021/12/17 15:39:31;;;;;;;6.50;1.43;;;;;;;2.74;63.09;103119.31;6363101;28;20248;-79
2021/12/17 15:42:36;;;;;;;8.17;1.63;;;;;;;2.65;63.50;103114.72;6364364;28;20496;-83
2021/12/17 15:45:42;;;;;;;6.10;1.40;;;;;;;2.15;65.03;103117.31;6344524;28;20227;-77
2021/12/17 15:48:48;;;;;;;5.47;1.40;;;;;;;2.50;64.24;103116.94;6361816;28;20293;-79
2021/12/17 15:51:52;;;;;;;6.63;1.57;;;;;;;2.93;62.51;103122.13;6364392;28;20380;-78
2021/12/17 15:54:57;;;;;;;2.50;1.40;;;;;;;2.75;62.94;103110.19;6367938;28;20191;-79
2021/12/17 15:58:02;;;;;;;2.33;1.50;;;;;;;2.70;62.86;103117.91;6368073;28;20498;-80
2021/12/17 16:01:07;;;;;;;3.30;1.30;;;;;;;2.62;63.31;103117.72;6368836;28;20186;-80
2021/12/17 16:04:13;;;;;;;5.40;1.50;;;;;;;2.70;63.00;103128.75;6369241;28;20184;-81
2021/12/17 16:07:18;;;;;;;4.77;2.17;;;;;;;2.71;63.06;103104.19;6371039;28;20182;-81
2021/12/17 16:23:53;;;;;;;5.10;1.50;;;;;;;2.36;64.04;103121.84;6371319;28;20263;-77
2021/12/17 16:26:58;;;;;;;2.80;1.67;;;;;;;2.53;63.79;103129.34;6369190;28;20216;-81
2021/12/17 16:30:02;;;;;;;3.03;1.60;;;;;;;2.55;63.74;103124.69;6370516;28;20191;-77
2021/12/17 16:33:08;;;;;;;1.80;1.70;;;;;;;2.37;64.47;103115.47;6370912;28;20268;-78
2021/12/17 16:36:15;;;;;;;4.53;1.90;;;;;;;2.42;64.24;103118.63;6370058;28;20263;-77
2021/12/17 16:39:20;;;;;;;4.67;1.60;;;;;;;2.57;64.24;103122.69;6368591;28;20182;-77
2021/12/17 16:42:24;;;;;;;9.43;3.43;;;;;;;2.49;64.63;103130.63;6369000;28;20450;-78
2021/12/17 16:45:31;;;;;;;28.57;12.17;;;;;;;2.55;63.95;103121.97;6351048;28;20293;-78
2021/12/17 16:48:37;;;;;;;6.80;3.20;;;;;;;2.48;64.02;103108.06;6369383;28;20328;-78
2021/12/17 16:51:45;;;;;;;1.90;1.80;;;;;;;2.41;64.61;103106.03;6368825;28;20268;-77
2021/12/17 16:54:49;;;;;;;2.40;1.37;;;;;;;2.82;63.21;103114.06;6369474;28;20325;-76
2021/12/17 16:57:54;;;;;;;3.83;1.43;;;;;;;2.58;63.55;103110.81;6369285;28;20186;-77
2021/12/17 17:00:59;;;;;;;4.73;1.90;;;;;;;2.77;63.17;103119.91;6366618;28;20187;-78
2021/12/17 17:04:03;;;;;;;2.33;1.53;;;;;;;2.97;62.79;103134.41;6365668;28;20194;-78
2021/12/17 17:07:11;;;;;;;3.83;1.60;;;;;;;2.96;63.01;103129.97;6365984;28;20251;-78
2021/12/17 17:10:16;;;;;;;1.80;1.60;;;;;;;2.87;63.35;103152.50;6365614;28;20182;-78
2021/12/17 17:13:21;;;;;;;4.37;1.60;;;;;;;2.72;63.53;103126.75;6365689;28;20286;-78
2021/12/17 17:16:26;;;;;;;4.50;1.70;;;;;;;2.92;63.32;103118.53;6365100;28;20197;-78
2021/12/17 17:19:30;;;;;;;1.60;1.50;;;;;;;2.85;63.34;103100.25;6365167;28;20184;-78
2021/12/17 17:22:36;;;;;;;7.90;1.70;;;;;;;2.98;63.06;103106.28;6365524;28;20185;-78
2021/12/17 17:25:40;;;;;;;4.50;1.60;;;;;;;3.10;62.83;103110.59;6364999;28;20231;-78
2021/12/17 17:28:46;;;;;;;2.97;1.47;;;;;;;3.08;63.01;103112.59;6364758;28;20246;-78